Time;durP1;ratioP1;P1;durP2;ratioP2;P2;SDS_P1;SDS_P2;PMS_P1;PMS_P2;Temp;Humidity;BMP_temperature;BMP_pressure;BME280_temperature;BME280_humidity;BME280_pressure;Samples;Min_cycle;Max_cycle;Signal;HPM_P1;HPM_P2
2023/12/10 00:00:05;;;;;;;5.95;3.75;;;;;;;7.62;80.22;101789.22;5071727;28;20572;-84
2023/12/10 00:02:32;;;;;;;6.95;4.20;;;;;;;7.55;79.72;101797.28;5069564;28;20032;-84
2023/12/10 00:04:57;;;;;;;6.75;4.00;;;;;;;7.87;80.04;101840.63;5069159;28;20032;-84
2023/12/10 00:07:23;;;;;;;6.60;4.15;;;;;;;7.55;80.00;101787.78;5074802;28;20446;-83
2023/12/10 00:09:49;;;;;;;7.40;4.10;;;;;;;7.89;79.72;101852.97;5049101;28;20685;-83
2023/12/10 00:12:15;;;;;;;6.05;3.83;;;;;;;7.68;80.21;101807.00;5047979;28;20115;-85
2023/12/10 00:14:40;;;;;;;7.03;4.40;;;;;;;7.62;79.81;101806.50;5069575;28;20039;-83
2023/12/10 00:17:06;;;;;;;6.78;4.18;;;;;;;7.93;79.62;101856.72;5060267;28;20096;-84
2023/12/10 00:19:33;;;;;;;7.03;4.18;;;;;;;7.77;80.27;101831.19;5058473;28;20119;-83
2023/12/10 00:21:59;;;;;;;6.05;3.80;;;;;;;7.73;79.51;101822.22;5064027;28;20056;-83
2023/12/10 00:24:25;;;;;;;5.85;3.90;;;;;;;7.70;80.13;101818.44;5075593;28;20028;-83
2023/12/10 00:26:50;;;;;;;5.68;3.85;;;;;;;7.81;79.85;101827.13;5050009;28;20623;-82
2023/12/10 00:29:16;;;;;;;6.35;3.97;;;;;;;8.02;79.19;101848.78;5072052;28;20284;-83
2023/12/10 00:31:45;;;;;;;6.03;4.00;;;;;;;7.80;79.38;101820.13;5069129;28;20606;-83
2023/12/10 00:34:11;;;;;;;6.68;4.20;;;;;;;7.92;79.80;101841.94;5074543;28;20025;-83
2023/12/10 00:36:37;;;;;;;6.30;4.00;;;;;;;7.92;79.92;101842.84;5066838;28;20036;-83
2023/12/10 00:39:05;;;;;;;6.88;4.05;;;;;;;7.89;80.14;101852.97;5056306;28;20122;-82
2023/12/10 00:41:33;;;;;;;7.22;4.35;;;;;;;7.91;79.66;101847.91;5085899;28;20033;-83
2023/12/10 00:43:59;;;;;;;6.65;4.05;;;;;;;7.62;80.00;101797.03;5080447;28;20032;-83
2023/12/10 00:46:24;;;;;;;7.03;4.20;;;;;;;7.46;79.60;101774.03;5066894;28;20411;-83
2023/12/10 00:48:50;;;;;;;5.60;3.85;;;;;;;7.78;79.69;101822.56;5065730;28;20032;-83
2023/12/10 00:51:19;;;;;;;5.45;3.70;;;;;;;7.70;79.57;101811.56;5060922;28;20032;-83
2023/12/10 00:53:46;;;;;;;6.82;3.80;;;;;;;7.91;79.91;101840.09;5080327;28;20036;-83
2023/12/10 00:56:11;;;;;;;;;;;;;;;7.91;80.25;101842.69;5072290;28;20533;-83
2023/12/10 00:58:37;;;;;;;6.68;3.90;;;;;;;7.75;79.88;101811.94;5064041;28;19915;-83
2023/12/10 01:01:03;;;;;;;6.53;4.10;;;;;;;7.81;79.40;101814.13;5076270;28;20020;-83
2023/12/10 01:03:28;;;;;;;8.15;4.07;;;;;;;7.79;79.82;101807.88;5071666;28;20043;-83
2023/12/10 01:05:54;;;;;;;6.60;4.15;;;;;;;7.78;79.16;101804.38;5068739;28;20088;-83
2023/12/10 01:08:20;;;;;;;6.70;4.35;;;;;;;7.77;80.05;101810.38;5064323;28;20032;-83
2023/12/10 01:10:45;;;;;;;6.07;3.78;;;;;;;7.78;80.25;101808.69;5072421;28;20020;-83
2023/12/10 01:13:11;;;;;;;6.30;4.07;;;;;;;7.75;79.52;101792.03;5062487;28;20116;-82
2023/12/10 01:15:37;;;;;;;6.57;3.65;;;;;;;7.84;80.11;101817.88;5062078;28;20033;-82
2023/12/10 01:18:02;;;;;;;6.00;3.67;;;;;;;7.76;80.21;101813.75;5055288;28;20111;-83
2023/12/10 01:20:30;;;;;;;7.18;4.30;;;;;;;7.74;79.75;101797.09;5053815;28;20119;-84
2023/12/10 01:22:56;;;;;;;6.07;3.42;;;;;;;7.86;80.40;101818.91;5043292;28;20028;-83
2023/12/10 01:25:24;;;;;;;7.57;4.05;;;;;;;7.62;80.06;101762.31;5046553;28;20040;-84
2023/12/10 01:27:51;;;;;;;5.30;3.35;;;;;;;7.79;79.75;101792.28;5053758;28;20036;-83
2023/12/10 01:30:23;;;;;;;7.00;3.97;;;;;;;7.89;79.63;101813.06;5053727;28;20056;-83
2023/12/10 01:32:54;;;;;;;5.25;3.33;;;;;;;7.91;79.82;101809.78;5053280;28;20036;-83
2023/12/10 01:35:20;;;;;;;5.90;3.60;;;;;;;7.90;79.72;101807.97;5067787;28;20087;-83
2023/12/10 01:37:46;;;;;;;6.68;4.10;;;;;;;7.92;79.65;101813.31;5068385;28;20025;-83
2023/12/10 01:40:12;;;;;;;5.03;3.28;;;;;;;7.71;79.37;101774.38;5056124;28;20040;-83
2023/12/10 01:42:38;;;;;;;5.88;3.60;;;;;;;7.71;79.44;101771.78;5052782;28;20041;-84
2023/12/10 01:45:04;;;;;;;5.40;3.70;;;;;;;7.71;79.84;101773.47;5052601;28;20036;-83
2023/12/10 01:47:32;;;;;;;5.80;3.45;;;;;;;7.70;79.56;101761.25;5072411;28;20056;-83
2023/12/10 01:49:58;;;;;;;6.30;3.67;;;;;;;7.78;79.61;101767.06;5071796;28;20453;-84
2023/12/10 01:52:24;;;;;;;5.40;3.55;;;;;;;7.80;79.41;101768.09;5052860;28;20513;-83
2023/12/10 01:54:50;;;;;;;5.93;3.92;;;;;;;7.71;79.64;101768.28;5053558;28;20038;-83
2023/12/10 01:57:16;;;;;;;5.68;3.40;;;;;;;7.84;79.04;101762.38;5058285;28;20111;-83
2023/12/10 01:59:42;;;;;;;5.43;3.67;;;;;;;7.65;80.13;101749.56;5061435;28;20036;-83
2023/12/10 02:02:07;;;;;;;6.03;3.65;;;;;;;7.61;79.57;101742.31;5069468;28;20043;-83
2023/12/10 02:04:33;;;;;;;6.35;3.80;;;;;;;7.83;79.69;101778.75;5034434;28;20048;-84
2023/12/10 02:06:59;;;;;;;5.20;3.35;;;;;;;7.72;79.44;101752.78;5078611;28;20487;-83
2023/12/10 02:09:26;;;;;;;5.78;3.65;;;;;;;7.86;79.69;101766.00;5057482;28;20420;-83
2023/12/10 02:11:53;;;;;;;5.78;3.67;;;;;;;7.81;79.44;101756.91;5060102;28;20539;-84
2023/12/10 02:14:21;;;;;;;5.80;3.55;;;;;;;7.69;79.97;101731.75;5063677;28;20385;-83
2023/12/10 02:16:47;;;;;;;5.45;3.53;;;;;;;7.90;79.48;101778.47;5048140;28;20483;-83
2023/12/10 02:19:13;;;;;;;5.35;3.55;;;;;;;7.88;79.51;101769.63;5068949;28;20035;-84
2023/12/10 02:21:42;;;;;;;5.72;3.58;;;;;;;7.77;79.61;101750.56;5077886;28;20036;-84
2023/12/10 02:24:10;;;;;;;5.90;3.60;;;;;;;7.39;80.17;101700.66;5075061;28;20024;-83
2023/12/10 02:26:37;;;;;;;5.43;3.30;;;;;;;7.58;79.59;101729.03;5055381;28;20037;-83
2023/12/10 02:29:03;;;;;;;6.13;3.67;;;;;;;7.44;79.67;101702.84;5048456;28;20049;-83
2023/12/10 02:31:29;;;;;;;7.40;3.42;;;;;;;7.80;80.26;101776.81;5060134;28;20025;-83
2023/12/10 02:33:55;;;;;;;5.30;3.22;;;;;;;7.85;79.70;101790.19;5064012;28;20032;-82
2023/12/10 02:36:21;;;;;;;5.43;3.35;;;;;;;7.80;79.82;101773.31;5069726;28;20119;-84
2023/12/10 02:38:48;;;;;;;5.15;3.38;;;;;;;7.60;79.68;101743.06;5077701;28;20112;-84
2023/12/10 02:41:13;;;;;;;5.43;3.65;;;;;;;7.84;79.78;101772.78;5055379;28;20040;-84
2023/12/10 02:43:39;;;;;;;4.90;3.13;;;;;;;7.77;79.86;101767.84;5042621;28;20422;-84
2023/12/10 02:46:05;;;;;;;5.50;3.33;;;;;;;7.72;79.61;101770.06;5066009;28;20035;-85
2023/12/10 02:48:30;;;;;;;6.05;3.58;;;;;;;7.83;79.53;101783.94;5060716;28;20039;-84
2023/12/10 02:50:56;;;;;;;4.72;3.25;;;;;;;7.73;79.79;101772.81;5067223;28;20113;-83
2023/12/10 02:53:22;;;;;;;5.15;3.22;;;;;;;7.77;79.74;101775.63;5074482;28;20035;-83
2023/12/10 02:55:47;;;;;;;5.70;3.35;;;;;;;7.77;79.88;101779.19;5051135;28;20132;-84
2023/12/10 02:58:13;;;;;;;5.47;3.45;;;;;;;7.67;79.72;101764.50;5069387;28;20585;-84
2023/12/10 03:00:39;;;;;;;6.10;3.40;;;;;;;7.80;79.68;101783.72;5052272;28;20036;-83
2023/12/10 03:03:04;;;;;;;4.65;2.90;;;;;;;7.86;79.88;101795.50;5029757;28;20099;-83
2023/12/10 03:05:30;;;;;;;5.88;3.55;;;;;;;7.86;80.06;101797.22;5081860;28;20025;-83
2023/12/10 03:07:57;;;;;;;5.90;3.50;;;;;;;7.84;79.77;101793.56;5055327;28;20029;-83
2023/12/10 03:10:23;;;;;;;5.90;3.25;;;;;;;7.80;79.80;101782.00;5066844;28;20495;-83
2023/12/10 03:12:49;;;;;;;4.43;3.28;;;;;;;7.83;79.72;101786.53;5051018;28;20035;-83
2023/12/10 03:15:15;;;;;;;6.38;3.35;;;;;;;7.75;80.28;101775.53;5065506;28;20115;-83
2023/12/10 03:17:40;;;;;;;4.57;3.05;;;;;;;7.77;79.76;101778.25;5053345;28;20037;-83
2023/12/10 03:20:07;;;;;;;5.07;3.22;;;;;;;7.79;79.56;101768.88;5061943;28;20032;-84
2023/12/10 03:22:33;;;;;;;6.40;3.55;;;;;;;7.70;79.87;101767.38;5044147;28;20051;-83
2023/12/10 03:24:58;;;;;;;4.70;3.05;;;;;;;7.57;79.99;101748.03;5073350;28;20772;-83
2023/12/10 03:27:24;;;;;;;5.80;3.70;;;;;;;7.70;79.83;101763.84;5052188;28;20044;-84
2023/12/10 03:29:50;;;;;;;5.55;3.38;;;;;;;7.70;79.81;101769.03;5051842;28;20040;-83
2023/12/10 03:32:16;;;;;;;5.07;3.10;;;;;;;7.75;79.43;101786.84;5064086;28;20039;-83
2023/12/10 03:34:42;;;;;;;6.22;3.47;;;;;;;7.55;79.73;101741.00;5056770;28;20029;-83
2023/12/10 03:37:08;;;;;;;5.22;3.30;;;;;;;7.66;80.16;101757.50;5059378;28;20112;-85
2023/12/10 03:39:34;;;;;;;5.43;3.45;;;;;;;7.32;79.52;101679.38;5067571;28;20035;-83
2023/12/10 03:41:59;;;;;;;4.65;3.10;;;;;;;7.63;79.97;101754.63;5073064;28;20036;-83
2023/12/10 03:44:25;;;;;;;5.10;3.20;;;;;;;7.68;79.56;101757.59;5069773;28;20094;-83
2023/12/10 03:46:51;;;;;;;6.15;3.67;;;;;;;7.58;79.60;101731.63;5069477;28;20036;-83
2023/12/10 03:49:16;;;;;;;4.63;3.10;;;;;;;7.80;79.43;101781.09;5067096;28;20036;-84
2023/12/10 03:51:42;;;;;;;5.85;3.38;;;;;;;7.61;80.02;101742.31;5052302;28;20067;-84
2023/12/10 03:54:08;;;;;;;5.00;3.10;;;;;;;7.52;79.74;101732.06;5048648;28;20043;-84
2023/12/10 03:56:34;;;;;;;5.20;3.05;;;;;;;7.74;79.47;101774.59;5065321;28;20443;-84
2023/12/10 03:58:59;;;;;;;5.72;3.17;;;;;;;7.63;79.70;101754.63;5048232;28;20483;-84
2023/12/10 04:01:25;;;;;;;5.65;3.40;;;;;;;7.83;79.48;101786.53;5056503;28;20491;-84
2023/12/10 04:03:51;;;;;;;5.65;3.60;;;;;;;7.62;79.73;101749.31;5052984;28;20028;-84
2023/12/10 04:06:17;;;;;;;4.53;2.92;;;;;;;7.44;79.49;101718.44;5067802;28;20556;-83
2023/12/10 04:08:43;;;;;;;5.25;3.20;;;;;;;7.87;79.59;101801.63;5069456;28;20032;-83
2023/12/10 04:11:09;;;;;;;5.57;3.40;;;;;;;7.74;79.19;101781.50;5070743;28;20040;-84
2023/12/10 04:13:34;;;;;;;5.57;3.45;;;;;;;7.88;79.09;101793.94;5051248;28;20024;-83
2023/12/10 04:16:01;;;;;;;5.25;3.00;;;;;;;7.63;79.48;101753.75;5062383;28;20033;-83
2023/12/10 04:18:27;;;;;;;4.07;2.80;;;;;;;7.44;79.79;101713.25;5048349;28;20039;-83
2023/12/10 04:20:53;;;;;;;6.05;3.38;;;;;;;7.33;79.56;101695.88;5047956;28;20039;-83
2023/12/10 04:23:23;;;;;;;5.25;3.15;;;;;;;7.88;79.32;101786.16;5063253;28;20096;-82
2023/12/10 04:25:49;;;;;;;4.68;3.15;;;;;;;7.74;79.89;101771.09;5092754;28;20036;-83
2023/12/10 04:28:15;;;;;;;6.07;3.47;;;;;;;7.87;79.39;101781.75;5073589;28;20076;-84
2023/12/10 04:30:42;;;;;;;5.15;3.22;;;;;;;7.71;79.58;101756.16;5084155;28;20058;-85
2023/12/10 04:33:08;;;;;;;5.15;3.20;;;;;;;7.81;79.58;101785.50;5106144;28;20040;-85
2023/12/10 04:35:33;;;;;;;5.15;3.17;;;;;;;7.81;79.98;101783.84;5075164;28;20359;-84
2023/12/10 04:37:59;;;;;;;4.43;3.05;;;;;;;7.75;79.21;101755.63;5092722;28;20084;-85
2023/12/10 04:40:25;;;;;;;6.00;3.22;;;;;;;7.79;79.67;101774.06;5094793;28;20037;-84
2023/12/10 04:42:51;;;;;;;5.50;3.50;;;;;;;7.61;79.61;101743.22;5072999;28;20115;-84
2023/12/10 04:45:16;;;;;;;5.75;3.35;;;;;;;7.32;79.29;101691.44;5058824;28;20028;-84
2023/12/10 04:47:42;;;;;;;4.88;3.00;;;;;;;7.59;79.14;101731.78;5068550;28;20348;-83
2023/12/10 04:50:08;;;;;;;5.57;3.47;;;;;;;7.42;79.36;101708.72;5069110;28;20108;-83
2023/12/10 04:52:34;;;;;;;5.05;3.10;;;;;;;7.60;79.50;101732.69;5051113;28;20047;-83
2023/12/10 04:54:59;;;;;;;5.07;3.28;;;;;;;7.78;79.24;101770.56;5066484;28;20082;-83
2023/12/10 04:57:26;;;;;;;5.97;3.30;;;;;;;7.83;79.10;101783.94;5042047;28;20065;-83
2023/12/10 04:59:51;;;;;;;5.32;3.03;;;;;;;7.72;78.89;101768.38;5048610;28;20111;-83
2023/12/10 05:02:17;;;;;;;5.70;3.53;;;;;;;7.70;79.17;101762.19;5065920;28;20128;-82
2023/12/10 05:04:43;;;;;;;4.82;2.95;;;;;;;7.81;79.24;101772.50;5044431;28;20444;-82
2023/12/10 05:07:09;;;;;;;5.80;3.30;;;;;;;7.78;79.32;101775.78;5067698;28;20028;-82
2023/12/10 05:09:35;;;;;;;4.53;3.28;;;;;;;7.70;79.54;101756.03;5056971;28;20419;-83
2023/12/10 05:12:01;;;;;;;5.03;2.90;;;;;;;7.72;79.54;101757.06;5044921;28;20056;-83
2023/12/10 05:14:26;;;;;;;5.22;2.90;;;;;;;7.67;79.38;101753.22;5065750;28;20039;-82
2023/12/10 05:16:52;;;;;;;4.78;3.25;;;;;;;7.57;79.22;101732.44;5046969;28;20032;-83
2023/12/10 05:19:18;;;;;;;4.63;3.00;;;;;;;7.85;78.44;101765.09;5064286;28;20036;-83
2023/12/10 05:21:43;;;;;;;5.80;3.47;;;;;;;7.75;79.25;101775.53;5066943;28;20413;-83
2023/12/10 05:24:09;;;;;;;4.75;3.17;;;;;;;7.61;79.23;101742.31;5065733;28;20025;-83
2023/12/10 05:26:35;;;;;;;4.07;2.70;;;;;;;7.70;79.27;101759.56;5068553;28;20032;-82
2023/12/10 05:29:01;;;;;;;5.38;3.20;;;;;;;7.79;79.38;101766.28;5061741;28;20048;-82
2023/12/10 05:31:26;;;;;;;5.22;3.13;;;;;;;7.66;79.61;101746.19;5060514;28;20538;-82
2023/12/10 05:33:52;;;;;;;4.97;3.17;;;;;;;7.69;79.17;101741.25;5062627;28;20060;-83
2023/12/10 05:36:18;;;;;;;4.32;2.95;;;;;;;7.54;79.44;101717.50;5065637;28;20090;-83
2023/12/10 05:38:43;;;;;;;5.78;3.30;;;;;;;7.80;79.04;101762.91;5050461;28;20094;-83
2023/12/10 05:41:10;;;;;;;5.57;3.60;;;;;;;7.85;79.07;101777.19;5060843;28;20037;-82
2023/12/10 05:43:35;;;;;;;5.25;2.92;;;;;;;7.85;78.75;101767.72;5051922;28;20538;-83
2023/12/10 05:46:01;;;;;;;4.95;3.33;;;;;;;7.87;79.15;101779.16;5042282;28;20119;-83
2023/12/10 05:48:30;;;;;;;5.70;3.30;;;;;;;7.70;78.25;101725.78;5061631;28;20143;-83
2023/12/10 05:50:55;;;;;;;4.78;3.10;;;;;;;7.95;78.96;101783.25;5051388;28;20028;-83
2023/12/10 05:53:22;;;;;;;5.25;3.03;;;;;;;7.59;78.71;101720.47;5069091;28;20028;-84
2023/12/10 05:55:47;;;;;;;6.03;3.15;;;;;;;7.72;78.78;101742.38;5062857;28;20491;-83
2023/12/10 05:58:13;;;;;;;4.72;3.08;;;;;;;7.70;79.43;101743.97;5061337;28;20032;-82
2023/12/10 06:00:39;;;;;;;5.47;3.47;;;;;;;7.76;78.87;101748.75;5065231;28;20117;-82
2023/12/10 06:03:05;;;;;;;4.93;3.20;;;;;;;7.87;78.97;101762.59;5032975;28;20036;-83
2023/12/10 06:05:30;;;;;;;5.07;3.10;;;;;;;7.62;79.33;101738.91;5056247;28;20959;-83
2023/12/10 06:07:56;;;;;;;5.03;3.40;;;;;;;7.21;79.47;101677.59;5067538;28;20667;-83
2023/12/10 06:10:22;;;;;;;4.00;2.88;;;;;;;7.65;79.25;101752.16;5053697;28;20025;-83
2023/12/10 06:12:50;;;;;;;6.00;3.22;;;;;;;7.81;79.07;101767.31;5051464;28;20115;-83
2023/12/10 06:15:15;;;;;;;4.82;3.28;;;;;;;7.82;79.76;101782.16;5064924;28;20021;-81
2023/12/10 06:17:41;;;;;;;4.88;3.33;;;;;;;7.69;79.05;101757.75;5046315;28;20028;-82
2023/12/10 06:20:08;;;;;;;6.13;3.53;;;;;;;7.85;78.81;101784.97;5055547;28;20034;-82
2023/12/10 06:22:34;;;;;;;4.93;3.20;;;;;;;7.84;79.23;101778.88;5062656;28;20032;-83
2023/12/10 06:24:59;;;;;;;4.80;3.40;;;;;;;7.61;78.82;101734.50;5065538;28;20020;-83
2023/12/10 06:27:25;;;;;;;6.22;3.63;;;;;;;7.32;79.33;101676.78;5032124;28;20032;-83
2023/12/10 06:29:51;;;;;;;6.03;3.13;;;;;;;7.78;78.91;101762.78;5061004;28;20041;-82
2023/12/10 06:32:16;;;;;;;5.13;3.30;;;;;;;7.79;79.18;101761.06;5069168;28;20017;-83
2023/12/10 06:34:42;;;;;;;4.93;3.30;;;;;;;7.81;79.16;101773.44;5044634;28;20043;-84
2023/12/10 06:37:08;;;;;;;5.13;2.90;;;;;;;7.62;79.28;101758.03;5064815;28;20126;-83
2023/12/10 06:39:34;;;;;;;4.85;3.20;;;;;;;7.69;78.90;101764.63;5040280;28;20036;-83
2023/12/10 06:41:59;;;;;;;5.32;3.30;;;;;;;7.71;79.20;101763.06;5062384;28;20679;-83
2023/12/10 06:44:25;;;;;;;6.68;3.38;;;;;;;7.84;79.71;101796.19;5068014;28;20029;-83
2023/12/10 06:46:51;;;;;;;4.95;3.30;;;;;;;7.85;79.21;101788.50;5034585;28;20033;-83
2023/12/10 06:49:17;;;;;;;4.97;3.10;;;;;;;7.85;78.84;101779.78;5058161;28;20391;-83
2023/12/10 06:51:43;;;;;;;5.63;3.55;;;;;;;7.86;79.33;101786.81;5044977;28;20016;-82
2023/12/10 06:54:10;;;;;;;5.72;3.28;;;;;;;7.87;79.03;101792.16;5060495;28;20101;-83
2023/12/10 06:56:39;;;;;;;5.10;3.08;;;;;;;7.90;78.73;101794.06;5043695;28;20031;-83
2023/12/10 06:59:06;;;;;;;6.75;3.70;;;;;;;7.77;79.19;101779.19;5041113;28;20047;-83
2023/12/10 07:01:34;;;;;;;6.72;3.72;;;;;;;7.80;78.87;101783.72;5060661;28;20097;-83
2023/12/10 07:04:00;;;;;;;6.63;4.05;;;;;;;7.72;79.16;101778.78;5060040;28;20025;-83
2023/12/10 07:06:26;;;;;;;5.82;3.58;;;;;;;7.65;78.95;101768.66;5066040;28;20039;-83
2023/12/10 07:08:51;;;;;;;6.78;4.10;;;;;;;7.79;79.51;101797.47;5057257;28;22081;-85
2023/12/10 07:11:17;;;;;;;7.00;4.32;;;;;;;7.67;79.36;101777.50;5068355;28;20048;-84
2023/12/10 07:13:43;;;;;;;7.50;4.15;;;;;;;7.74;79.05;101782.41;5061471;28;20052;-82
2023/12/10 07:16:08;;;;;;;6.97;3.88;;;;;;;7.62;78.94;101772.69;5060179;28;20086;-82
2023/12/10 07:18:34;;;;;;;6.97;4.00;;;;;;;7.65;79.49;101789.47;5062535;28;20044;-83
2023/12/10 07:21:03;;;;;;;7.82;4.72;;;;;;;7.63;79.48;101788.44;5058252;28;20591;-82
2023/12/10 07:23:28;;;;;;;6.88;4.38;;;;;;;7.71;79.42;101800.38;5042821;28;20802;-82
2023/12/10 07:25:54;;;;;;;6.90;4.30;;;;;;;7.83;79.41;101823.88;5062495;28;20024;-82
2023/12/10 07:28:20;;;;;;;7.95;4.53;;;;;;;7.62;79.29;101781.44;5046398;28;20064;-83
2023/12/10 07:30:46;;;;;;;7.10;4.25;;;;;;;7.34;79.54;101741.84;5046320;28;20040;-83
2023/12/10 07:33:12;;;;;;;9.30;4.88;;;;;;;7.60;79.62;101787.25;5044269;28;20055;-84
2023/12/10 07:35:40;;;;;;;7.55;4.65;;;;;;;7.68;79.78;101799.19;5034480;28;20049;-84
2023/12/10 07:38:05;;;;;;;7.95;4.57;;;;;;;7.65;79.85;101797.25;5046688;28;20036;-83
2023/12/10 07:40:31;;;;;;;7.13;4.60;;;;;;;7.49;79.59;101766.53;5038081;28;20113;-84
2023/12/10 07:42:57;;;;;;;6.47;4.03;;;;;;;7.79;79.78;101820.88;5048738;28;20120;-82
2023/12/10 07:45:22;;;;;;;7.53;4.35;;;;;;;7.17;79.30;101700.59;5064835;28;20040;-83
2023/12/10 07:47:48;;;;;;;7.63;4.40;;;;;;;7.62;79.74;101788.31;5039492;28;20112;-83
2023/12/10 07:50:14;;;;;;;7.53;4.45;;;;;;;7.68;79.79;101805.34;5037496;28;20033;-82
2023/12/10 07:52:40;;;;;;;6.97;4.13;;;;;;;7.73;79.62;101804.00;5044140;28;20041;-83
2023/12/10 07:55:06;;;;;;;7.30;4.47;;;;;;;7.70;79.75;101811.56;5038449;28;20026;-86
2023/12/10 07:57:32;;;;;;;7.15;4.60;;;;;;;7.62;79.45;101777.91;5047548;28;20037;-85
2023/12/10 07:59:58;;;;;;;;;;;;;;;7.81;79.47;101819.31;5036729;28;20098;-86
2023/12/10 08:02:24;;;;;;;6.80;4.30;;;;;;;7.77;79.53;101814.66;5045292;28;19916;-85
2023/12/10 08:04:49;;;;;;;7.30;3.90;;;;;;;7.46;79.55;101762.75;5040486;28;20032;-85
2023/12/10 08:07:15;;;;;;;7.10;4.22;;;;;;;7.75;79.92;101822.34;5023572;28;20611;-85
2023/12/10 08:09:41;;;;;;;7.00;4.20;;;;;;;7.63;79.55;101793.63;5042301;28;20563;-85
2023/12/10 08:12:07;;;;;;;6.20;3.95;;;;;;;7.76;79.47;101816.34;5043950;28;20024;-87
2023/12/10 08:14:32;;;;;;;8.15;4.40;;;;;;;7.56;79.59;101778.31;5040974;28;20673;-88
2023/12/10 08:16:59;;;;;;;6.00;4.05;;;;;;;7.43;79.51;101758.22;5054620;28;20041;-86
2023/12/10 08:19:25;;;;;;;7.50;4.32;;;;;;;7.70;79.60;101802.84;5044096;28;20033;-86
2023/12/10 08:21:51;;;;;;;6.47;4.18;;;;;;;7.69;79.74;101809.75;5074601;28;20039;-85
2023/12/10 08:24:17;;;;;;;6.60;3.92;;;;;;;7.84;79.85;101837.78;5043089;28;20036;-85
2023/12/10 08:26:43;;;;;;;5.85;3.72;;;;;;;7.77;79.66;101822.44;5038480;28;20021;-86
2023/12/10 08:29:09;;;;;;;6.53;4.13;;;;;;;7.92;79.54;101827.22;5039371;28;20124;-83
2023/12/10 08:31:35;;;;;;;7.00;3.95;;;;;;;7.82;79.61;101818.56;5045021;28;20495;-83
2023/12/10 08:34:00;;;;;;;8.52;4.53;;;;;;;7.65;79.74;101788.56;5040602;28;20037;-85
2023/12/10 08:36:26;;;;;;;6.65;4.28;;;;;;;7.75;79.68;101809.34;5049979;28;20032;-85
2023/12/10 08:38:52;;;;;;;6.75;3.90;;;;;;;7.88;79.58;101822.56;5043529;28;20036;-86
2023/12/10 08:41:17;;;;;;;6.28;3.75;;;;;;;7.70;79.51;101789.84;5041070;28;20067;-83
2023/12/10 08:43:43;;;;;;;6.82;3.92;;;;;;;7.75;79.42;101792.03;5043945;28;20052;-83
2023/12/10 08:46:09;;;;;;;6.93;4.07;;;;;;;7.71;79.56;101795.16;5038099;28;20052;-83
2023/12/10 08:48:35;;;;;;;5.70;3.85;;;;;;;7.74;79.58;101805.81;5047646;28;20515;-84
2023/12/10 08:51:00;;;;;;;7.10;4.45;;;;;;;7.73;79.74;101811.81;5045098;28;20022;-86
2023/12/10 08:53:26;;;;;;;7.57;4.03;;;;;;;7.58;79.73;101765.44;5050132;28;20657;-83
2023/12/10 08:55:52;;;;;;;6.70;4.20;;;;;;;7.78;79.37;101780.97;5052139;28;20033;-83
2023/12/10 08:58:18;;;;;;;6.18;3.90;;;;;;;7.62;79.36;101746.69;5051275;28;20033;-83
2023/12/10 09:00:43;;;;;;;7.00;4.22;;;;;;;7.94;79.49;101791.84;5052280;28;20028;-84
2023/12/10 09:03:10;;;;;;;8.18;4.00;;;;;;;7.69;79.67;101762.94;5051364;28;20036;-84
2023/12/10 09:05:36;;;;;;;7.50;3.90;;;;;;;7.57;79.27;101729.84;5050417;28;20032;-84
2023/12/10 09:08:02;;;;;;;6.32;4.15;;;;;;;7.80;79.59;101760.31;5056212;28;20028;-84
2023/12/10 09:10:28;;;;;;;6.47;4.03;;;;;;;7.48;79.52;101714.41;5051042;28;20507;-84
2023/12/10 09:12:54;;;;;;;7.10;4.40;;;;;;;7.68;79.83;101740.34;5053934;28;20025;-84
2023/12/10 09:15:19;;;;;;;5.88;3.83;;;;;;;7.46;79.95;101708.19;5038124;28;20408;-84
2023/12/10 09:17:45;;;;;;;6.70;4.13;;;;;;;7.82;79.44;101763.94;5052705;28;20071;-82
2023/12/10 09:20:11;;;;;;;8.15;4.13;;;;;;;7.85;79.48;101762.50;5051280;28;20508;-83
2023/12/10 09:22:37;;;;;;;8.65;3.92;;;;;;;7.92;79.60;101761.31;5052554;28;20044;-82
2023/12/10 09:25:03;;;;;;;7.68;4.35;;;;;;;7.91;79.29;101746.47;5037356;28;20044;-83
2023/12/10 09:27:29;;;;;;;6.55;4.35;;;;;;;7.84;79.50;101736.38;5054445;28;20051;-84
2023/12/10 09:29:56;;;;;;;8.10;4.18;;;;;;;7.72;79.49;101711.19;5071606;28;20048;-83
2023/12/10 09:32:23;;;;;;;6.55;4.10;;;;;;;8.06;79.38;101758.09;5078237;28;20081;-84
2023/12/10 09:34:50;;;;;;;6.93;4.30;;;;;;;7.89;79.72;101737.63;5075066;28;20033;-83
2023/12/10 09:37:16;;;;;;;8.57;4.05;;;;;;;7.98;79.43;101727.06;5096251;28;20020;-85
2023/12/10 09:39:42;;;;;;;6.85;4.22;;;;;;;8.03;80.39;101752.66;5053071;28;20032;-84
2023/12/10 09:42:08;;;;;;;6.82;3.75;;;;;;;7.72;79.78;101690.38;5051972;28;20070;-84
2023/12/10 09:44:33;;;;;;;8.18;4.30;;;;;;;8.01;80.19;101735.13;5068711;28;20064;-84
2023/12/10 09:47:00;;;;;;;6.07;4.18;;;;;;;7.67;80.50;101672.63;5071243;28;20048;-84
2023/12/10 09:49:27;;;;;;;7.55;4.40;;;;;;;8.08;80.75;101740.00;5039780;28;20116;-83
2023/12/10 09:51:53;;;;;;;7.53;4.13;;;;;;;8.12;80.42;101729.97;5041764;28;20031;-83
2023/12/10 09:54:22;;;;;;;7.85;4.53;;;;;;;8.12;80.84;101729.97;5051081;28;20484;-84
2023/12/10 09:56:48;;;;;;;9.65;4.50;;;;;;;8.14;80.73;101731.00;5063805;28;20033;-84
2023/12/10 09:59:15;;;;;;;8.90;4.93;;;;;;;7.87;81.20;101676.78;5073210;28;20036;-84
2023/12/10 10:01:49;;;;;;;9.13;4.45;;;;;;;8.00;81.46;101695.19;5081142;28;20029;-84
2023/12/10 10:04:14;;;;;;;17.00;5.10;;;;;;;8.13;82.03;101721.38;5050642;28;20055;-83
2023/12/10 10:06:40;;;;;;;9.80;4.60;;;;;;;8.13;82.31;101715.28;5052352;28;20032;-84
2023/12/10 10:09:06;;;;;;;12.45;5.05;;;;;;;8.11;81.84;101701.25;5070196;28;20024;-85
2023/12/10 10:11:32;;;;;;;13.98;5.00;;;;;;;8.13;81.96;101702.28;5041286;28;20142;-84
2023/12/10 10:13:58;;;;;;;12.82;4.65;;;;;;;8.11;82.53;101693.44;5059085;28;20097;-85
2023/12/10 10:16:23;;;;;;;11.02;4.90;;;;;;;8.08;82.19;101688.88;5053329;28;20033;-83
2023/12/10 10:18:49;;;;;;;14.13;5.30;;;;;;;8.09;82.14;101682.91;5065487;28;20028;-84
2023/12/10 10:21:15;;;;;;;14.15;5.28;;;;;;;8.06;83.05;101682.66;5054330;28;20036;-83
2023/12/10 10:23:42;;;;;;;14.65;4.65;;;;;;;8.05;82.78;101672.16;5048008;28;20035;-84
2023/12/10 10:26:08;;;;;;;10.20;5.20;;;;;;;8.09;82.02;101680.31;5052007;28;20423;-84
2023/12/10 10:28:35;;;;;;;10.43;5.28;;;;;;;7.69;82.74;101595.66;5055032;28;20076;-83
2023/12/10 10:31:01;;;;;;;;;;;;;;;8.27;82.02;101688.63;5052273;28;20624;-84
2023/12/10 10:33:28;;;;;;;10.67;5.10;;;;;;;8.24;82.45;101695.31;5060010;28;19912;-84
2023/12/10 10:35:53;;;;;;;12.43;5.45;;;;;;;8.19;82.58;101678.41;5067525;28;20336;-83
2023/12/10 10:38:22;;;;;;;10.27;4.95;;;;;;;8.21;82.69;101682.03;5070181;28;20449;-83
2023/12/10 10:40:48;;;;;;;11.35;5.30;;;;;;;8.29;82.56;101679.25;5069710;28;20089;-84
2023/12/10 10:43:14;;;;;;;;;;;;;;;8.23;82.77;101675.25;5085874;28;20028;-84
2023/12/10 10:45:39;;;;;;;11.23;5.13;;;;;;;7.92;82.18;101613.06;5054037;28;19924;-83
2023/12/10 10:48:05;;;;;;;11.02;5.20;;;;;;;8.00;82.52;101627.56;5068760;28;20032;-84
2023/12/10 10:50:32;;;;;;;9.55;5.00;;;;;;;8.23;82.93;101657.06;5043160;28;20029;-85
2023/12/10 10:52:59;;;;;;;8.90;4.60;;;;;;;8.17;82.59;101628.88;5038509;28;20028;-84
2023/12/10 10:55:26;;;;;;;8.32;4.78;;;;;;;8.30;82.38;101647.25;5036377;28;20093;-84
2023/12/10 10:57:54;;;;;;;7.75;4.55;;;;;;;8.17;82.62;101618.47;5033943;28;20411;-85
2023/12/10 11:00:22;;;;;;;8.90;4.75;;;;;;;8.38;82.55;101642.63;5043938;28;20115;-85
2023/12/10 11:02:54;;;;;;;10.05;4.90;;;;;;;7.77;82.37;101544.25;5066246;28;20027;-85
2023/12/10 11:05:33;;;;;;;9.68;4.80;;;;;;;8.01;81.52;101582.56;5052350;28;20035;-85
2023/12/10 11:08:00;;;;;;;8.80;4.63;;;;;;;8.07;81.55;101585.63;5051805;28;20471;-85
2023/12/10 11:10:27;;;;;;;8.57;4.80;;;;;;;8.09;82.55;101602.25;5034191;28;20040;-85
2023/12/10 11:12:54;;;;;;;9.10;4.75;;;;;;;8.10;81.61;101572.84;5051760;28;20506;-85
2023/12/10 11:15:27;;;;;;;10.20;4.60;;;;;;;8.39;82.17;101618.41;5052452;28;20032;-84
2023/12/10 11:18:00;;;;;;;10.75;4.93;;;;;;;8.48;81.51;101623.44;5042436;28;20036;-84
2023/12/10 11:20:37;;;;;;;10.35;5.03;;;;;;;8.44;82.16;101616.19;5051396;28;20048;-85
2023/12/10 11:23:21;;;;;;;11.35;5.47;;;;;;;8.29;82.23;101595.06;5050888;28;20063;-85
2023/12/10 11:25:49;;;;;;;8.55;5.10;;;;;;;8.20;83.85;101579.69;5055802;28;20028;-84
2023/12/10 11:28:17;;;;;;;11.35;5.22;;;;;;;8.30;85.14;101597.81;5062998;28;20614;-85